ADDS METAR Data INFO
IDs: Format: Raw Decoded Include TAF

Data at: 1639 UTC 22 Jul 2017

KRBD 221553Z VRB06KT 10SM CLR 33/23 A2996 RMK AO2 SLP136 T03280228
KRBD 221453Z 17005KT 10SM CLR 31/23 A2997 RMK AO2 SLP137 T03110228 51012
KRBD 221353Z VRB04KT 10SM CLR 29/23 A2996 RMK AO2 SLP137 T02890233
KRBD 221253Z VRB04KT 10SM CLR 27/23 A2995 RMK AO2 SLP132 T02720233
KRBD 221153Z 20004KT 10SM CLR 26/23 A2993 RMK AO2 SLP125 T02560228 10289 20256 53002
KRBD 221053Z AUTO 17004KT 10SM CLR 26/23 A2993 RMK AO2 SLP124 T02610228
KRBD 220953Z AUTO 17004KT 10SM CLR 27/23 A2992 RMK AO2 SLP123 T02670228
KRBD 220853Z AUTO 16005KT 10SM CLR 27/23 A2993 RMK AO2 SLP122 T02670228 58006
KRBD 220753Z AUTO 15005KT 10SM CLR 27/22 A2994 RMK AO2 SLP126 T02720222
KRBD 220653Z AUTO 16006KT 10SM CLR 28/22 A2994 RMK AO2 SLP127 T02830222
KRBD 220553Z AUTO 17007KT 10SM CLR 29/22 A2994 RMK AO2 SLP129 T02890222 10356 20289 403780261 50003
KRBD 220453Z AUTO VRB05KT 10SM CLR 29/22 A2995 RMK AO2 SLP132 T02940222
KRBD 220353Z AUTO 16008KT 10SM CLR 31/22 A2995 RMK AO2 SLP130 T03060217
KRBD 220253Z AUTO 14009KT 10SM CLR 31/22 A2993 RMK AO2 SLP127 T03110217 53013
KRBD 220153Z 14011KT 10SM CLR 33/21 A2991 RMK AO2 SLP117 T03280211
KRBD 220053Z 13010KT 10SM CLR 34/19 A2989 RMK AO2 SLP111 T03390194
KRBD 212353Z 12012KT 10SM CLR 36/20 A2990 RMK AO2 SLP113 T03560200 10378 20350 56015
KRBD 212253Z 13012KT 10SM CLR 37/21 A2991 RMK AO2 SLP117 T03670206
KRBD 212153Z 13008KT 10SM CLR 37/20 A2992 RMK AO2 SLP122 T03670200
KRBD 212053Z AUTO 14008KT 10SM FEW070 37/21 A2994 RMK AO2 SLP127 T03720206 58021
KRBD 211953Z VRB04KT 10SM SCT060 37/22 A2996 RMK AO2 SLP134 T03670217
KRBD 211853Z 18007KT 10SM CLR 36/21 A2998 RMK AO2 SLP142 T03610211
KRBD 211753Z 16008KT 120V210 10SM CLR 36/22 A3000 RMK AO2 SLP149 T03610222 10361 20261 58008
KRBD 211653Z VRB04KT 10SM CLR 34/22 A3002 RMK AO2 SLP153 T03440222
KRBD 211553Z VRB06KT 10SM CLR 33/22 A3003 RMK AO2 SLP157 T03330217
KRBD 211453Z VRB03KT 10SM CLR 31/22 A3003 RMK AO2 SLP158 T03110222 50004
KRBD 211353Z VRB05KT 10SM CLR 29/23 A3003 RMK AO2 SLP159 T02890233
KRBD 211253Z 16006KT 10SM CLR 27/23 A3003 RMK AO2 SLP158 T02720233
KRBD 211153Z 15004KT 10SM CLR 26/23 A3002 RMK AO2 SLP154 T02610228 10289 20261 53007
KRBD 211053Z AUTO VRB03KT 10SM CLR 26/23 A3000 RMK AO2 SLP148 T02610228
KRBD 210953Z AUTO VRB04KT 10SM CLR 27/22 A2999 RMK AO2 SLP145 T02720222
KRBD 210853Z AUTO 17005KT 10SM CLR 28/22 A2999 RMK AO2 SLP145 T02780222 57007
KRBD 210753Z AUTO 17006KT 10SM CLR 28/22 A3000 RMK AO2 SLP148 T02830222
KRBD 210653Z AUTO 16007KT 10SM CLR 29/22 A3001 RMK AO2 SLP150 T02890217
KRBD 210553Z AUTO 15005KT 10SM CLR 29/22 A3001 RMK AO2 SLP153 T02890217 10356 20289 403780261 50005
KRBD 210453Z AUTO 14005KT 10SM CLR 29/22 A3002 RMK AO2 SLP154 T02940222